sensor_id;sensor_type;location;lat;lon;timestamp;temperature;humidity
33574;DHT22;20085;50.832;4.392;2022-12-18T00:00:54;1.50;97.40
33574;DHT22;20085;50.832;4.392;2022-12-18T00:03:38;1.40;97.50
33574;DHT22;20085;50.832;4.392;2022-12-18T00:06:24;1.40;97.80
33574;DHT22;20085;50.832;4.392;2022-12-18T00:09:08;1.30;97.50
33574;DHT22;20085;50.832;4.392;2022-12-18T00:11:53;1.40;97.50
33574;DHT22;20085;50.832;4.392;2022-12-18T00:14:38;1.40;97.40
33574;DHT22;20085;50.832;4.392;2022-12-18T00:17:29;1.30;97.30
33574;DHT22;20085;50.832;4.392;2022-12-18T00:20:27;1.30;97.40
33574;DHT22;20085;50.832;4.392;2022-12-18T00:23:21;1.30;97.20
33574;DHT22;20085;50.832;4.392;2022-12-18T00:26:14;1.40;97.20
33574;DHT22;20085;50.832;4.392;2022-12-18T00:31:48;1.40;97.10
33574;DHT22;20085;50.832;4.392;2022-12-18T00:34:16;1.40;97.00
33574;DHT22;20085;50.832;4.392;2022-12-18T00:36:47;1.40;96.90
33574;DHT22;20085;50.832;4.392;2022-12-18T00:39:13;1.30;96.80
33574;DHT22;20085;50.832;4.392;2022-12-18T00:42:10;1.30;96.80
33574;DHT22;20085;50.832;4.392;2022-12-18T00:44:57;1.30;96.80
33574;DHT22;20085;50.832;4.392;2022-12-18T00:47:26;1.20;96.70
33574;DHT22;20085;50.832;4.392;2022-12-18T00:49:55;1.20;96.70
33574;DHT22;20085;50.832;4.392;2022-12-18T00:55:15;1.40;96.50
33574;DHT22;20085;50.832;4.392;2022-12-18T00:57:41;1.40;96.40
33574;DHT22;20085;50.832;4.392;2022-12-18T01:00:10;1.40;96.20
33574;DHT22;20085;50.832;4.392;2022-12-18T01:02:43;1.40;96.10
33574;DHT22;20085;50.832;4.392;2022-12-18T01:05:12;1.50;95.90
33574;DHT22;20085;50.832;4.392;2022-12-18T01:07:41;1.50;95.50
33574;DHT22;20085;50.832;4.392;2022-12-18T01:10:13;1.50;95.40
33574;DHT22;20085;50.832;4.392;2022-12-18T01:15:48;1.60;95.30
33574;DHT22;20085;50.832;4.392;2022-12-18T01:18:24;1.40;95.10
33574;DHT22;20085;50.832;4.392;2022-12-18T01:20:50;1.30;95.30
33574;DHT22;20085;50.832;4.392;2022-12-18T01:23:16;1.20;95.30
33574;DHT22;20085;50.832;4.392;2022-12-18T01:25:49;1.20;95.40
33574;DHT22;20085;50.832;4.392;2022-12-18T01:28:26;1.20;95.50
33574;DHT22;20085;50.832;4.392;2022-12-18T01:30:52;1.20;95.40
33574;DHT22;20085;50.832;4.392;2022-12-18T01:33:17;1.10;95.40
33574;DHT22;20085;50.832;4.392;2022-12-18T01:35:49;1.10;95.40
33574;DHT22;20085;50.832;4.392;2022-12-18T01:38:20;1.10;95.40
33574;DHT22;20085;50.832;4.392;2022-12-18T01:40:48;1.10;95.40
33574;DHT22;20085;50.832;4.392;2022-12-18T01:43:17;1.20;95.40
33574;DHT22;20085;50.832;4.392;2022-12-18T01:46:00;1.20;95.20
33574;DHT22;20085;50.832;4.392;2022-12-18T01:48:29;1.10;95.10
33574;DHT22;20085;50.832;4.392;2022-12-18T01:50:59;1.10;95.10
33574;DHT22;20085;50.832;4.392;2022-12-18T01:53:25;1.10;95.10
33574;DHT22;20085;50.832;4.392;2022-12-18T01:55:55;1.00;95.20
33574;DHT22;20085;50.832;4.392;2022-12-18T01:58:30;1.10;95.30
33574;DHT22;20085;50.832;4.392;2022-12-18T02:01:06;1.10;95.10
33574;DHT22;20085;50.832;4.392;2022-12-18T02:03:44;1.10;95.00
33574;DHT22;20085;50.832;4.392;2022-12-18T02:06:15;1.10;95.00
33574;DHT22;20085;50.832;4.392;2022-12-18T02:14:02;1.10;94.80
33574;DHT22;20085;50.832;4.392;2022-12-18T02:16:51;1.00;94.80
33574;DHT22;20085;50.832;4.392;2022-12-18T02:19:37;1.00;94.70
33574;DHT22;20085;50.832;4.392;2022-12-18T02:27:53;1.00;94.60
33574;DHT22;20085;50.832;4.392;2022-12-18T02:30:29;1.00;94.70
33574;DHT22;20085;50.832;4.392;2022-12-18T02:32:57;1.00;94.60
33574;DHT22;20085;50.832;4.392;2022-12-18T02:36:06;1.00;94.70
33574;DHT22;20085;50.832;4.392;2022-12-18T02:38:34;1.00;94.60
33574;DHT22;20085;50.832;4.392;2022-12-18T02:41:19;0.90;94.60
33574;DHT22;20085;50.832;4.392;2022-12-18T02:44:16;0.80;94.70
33574;DHT22;20085;50.832;4.392;2022-12-18T02:46:51;0.80;94.60
33574;DHT22;20085;50.832;4.392;2022-12-18T02:49:31;0.90;94.70
33574;DHT22;20085;50.832;4.392;2022-12-18T03:00:35;0.80;94.40
33574;DHT22;20085;50.832;4.392;2022-12-18T03:03:07;0.80;94.50
33574;DHT22;20085;50.832;4.392;2022-12-18T03:05:47;0.80;94.50
33574;DHT22;20085;50.832;4.392;2022-12-18T03:11:31;0.90;94.40
33574;DHT22;20085;50.832;4.392;2022-12-18T03:14:30;0.90;94.40
33574;DHT22;20085;50.832;4.392;2022-12-18T03:17:17;0.80;94.40
33574;DHT22;20085;50.832;4.392;2022-12-18T03:20:04;0.70;94.50
33574;DHT22;20085;50.832;4.392;2022-12-18T03:22:51;0.80;94.40
33574;DHT22;20085;50.832;4.392;2022-12-18T03:25:29;0.60;94.50
33574;DHT22;20085;50.832;4.392;2022-12-18T03:28:19;0.70;94.60
33574;DHT22;20085;50.832;4.392;2022-12-18T03:30:53;0.50;94.60
33574;DHT22;20085;50.832;4.392;2022-12-18T03:33:31;0.50;94.70
33574;DHT22;20085;50.832;4.392;2022-12-18T03:36:10;0.50;94.70
33574;DHT22;20085;50.832;4.392;2022-12-18T03:38:47;0.40;94.70
33574;DHT22;20085;50.832;4.392;2022-12-18T03:41:39;0.40;94.80
33574;DHT22;20085;50.832;4.392;2022-12-18T03:44:40;0.30;94.70
33574;DHT22;20085;50.832;4.392;2022-12-18T03:47:27;0.20;94.90
33574;DHT22;20085;50.832;4.392;2022-12-18T03:55:57;0.30;94.60
33574;DHT22;20085;50.832;4.392;2022-12-18T03:58:26;0.40;94.50
33574;DHT22;20085;50.832;4.392;2022-12-18T04:00:52;0.30;94.40
33574;DHT22;20085;50.832;4.392;2022-12-18T04:03:21;0.30;94.40
33574;DHT22;20085;50.832;4.392;2022-12-18T04:06:07;0.40;94.40
33574;DHT22;20085;50.832;4.392;2022-12-18T04:08:35;0.40;94.30
33574;DHT22;20085;50.832;4.392;2022-12-18T04:11:01;0.50;94.20
33574;DHT22;20085;50.832;4.392;2022-12-18T04:13:36;0.50;94.00
33574;DHT22;20085;50.832;4.392;2022-12-18T04:16:17;0.40;94.00
33574;DHT22;20085;50.832;4.392;2022-12-18T04:18:58;0.40;94.20
33574;DHT22;20085;50.832;4.392;2022-12-18T04:21:25;0.30;94.20
33574;DHT22;20085;50.832;4.392;2022-12-18T04:24:13;0.30;94.30
33574;DHT22;20085;50.832;4.392;2022-12-18T04:26:40;0.20;94.40
33574;DHT22;20085;50.832;4.392;2022-12-18T04:29:13;0.20;94.40
33574;DHT22;20085;50.832;4.392;2022-12-18T04:31:39;0.30;94.50
33574;DHT22;20085;50.832;4.392;2022-12-18T04:34:04;0.30;94.20
33574;DHT22;20085;50.832;4.392;2022-12-18T04:36:30;0.20;94.00
33574;DHT22;20085;50.832;4.392;2022-12-18T04:38:56;0.30;94.10
33574;DHT22;20085;50.832;4.392;2022-12-18T04:41:21;0.30;94.10
33574;DHT22;20085;50.832;4.392;2022-12-18T04:43:47;0.30;94.10
33574;DHT22;20085;50.832;4.392;2022-12-18T04:46:17;0.20;94.10
33574;DHT22;20085;50.832;4.392;2022-12-18T04:48:47;0.20;94.10
33574;DHT22;20085;50.832;4.392;2022-12-18T04:51:30;0.20;94.20
33574;DHT22;20085;50.832;4.392;2022-12-18T04:57:11;0.30;93.80
33574;DHT22;20085;50.832;4.392;2022-12-18T04:59:36;0.20;93.80
33574;DHT22;20085;50.832;4.392;2022-12-18T05:02:05;0.20;93.90
33574;DHT22;20085;50.832;4.392;2022-12-18T05:04:52;0.20;93.90
33574;DHT22;20085;50.832;4.392;2022-12-18T05:07:24;0.20;94.00
33574;DHT22;20085;50.832;4.392;2022-12-18T05:09:54;0.20;94.40
33574;DHT22;20085;50.832;4.392;2022-12-18T05:12:20;0.10;94.10
33574;DHT22;20085;50.832;4.392;2022-12-18T05:14:45;0.20;94.10
33574;DHT22;20085;50.832;4.392;2022-12-18T05:17:21;0.30;94.10
33574;DHT22;20085;50.832;4.392;2022-12-18T05:19:56;0.30;93.90
33574;DHT22;20085;50.832;4.392;2022-12-18T05:22:25;0.30;93.90
33574;DHT22;20085;50.832;4.392;2022-12-18T05:25:08;0.30;93.80
33574;DHT22;20085;50.832;4.392;2022-12-18T05:27:54;0.40;93.70
33574;DHT22;20085;50.832;4.392;2022-12-18T05:30:37;0.30;93.80
33574;DHT22;20085;50.832;4.392;2022-12-18T05:33:03;0.20;93.80
33574;DHT22;20085;50.832;4.392;2022-12-18T05:35:34;0.10;93.80
33574;DHT22;20085;50.832;4.392;2022-12-18T05:37:59;0.00;93.80
33574;DHT22;20085;50.832;4.392;2022-12-18T05:40:27;0.00;93.80
33574;DHT22;20085;50.832;4.392;2022-12-18T05:43:16;0.00;93.90
33574;DHT22;20085;50.832;4.392;2022-12-18T05:45:42;-0.20;93.90
33574;DHT22;20085;50.832;4.392;2022-12-18T05:48:18;-0.20;94.00
33574;DHT22;20085;50.832;4.392;2022-12-18T05:50:44;-0.20;94.00
33574;DHT22;20085;50.832;4.392;2022-12-18T05:53:42;-0.10;94.00
33574;DHT22;20085;50.832;4.392;2022-12-18T05:56:12;0.00;93.90
33574;DHT22;20085;50.832;4.392;2022-12-18T05:58:43;0.00;93.80
33574;DHT22;20085;50.832;4.392;2022-12-18T06:01:19;0.10;93.80
33574;DHT22;20085;50.832;4.392;2022-12-18T06:03:49;0.10;93.70
33574;DHT22;20085;50.832;4.392;2022-12-18T06:09:06;0.30;93.50
33574;DHT22;20085;50.832;4.392;2022-12-18T06:12:08;0.30;93.50
33574;DHT22;20085;50.832;4.392;2022-12-18T06:14:44;0.40;93.30
33574;DHT22;20085;50.832;4.392;2022-12-18T06:17:10;0.30;93.20
33574;DHT22;20085;50.832;4.392;2022-12-18T06:19:45;0.40;93.30
33574;DHT22;20085;50.832;4.392;2022-12-18T06:22:17;0.30;93.30
33574;DHT22;20085;50.832;4.392;2022-12-18T06:24:51;0.30;93.30
33574;DHT22;20085;50.832;4.392;2022-12-18T06:28:00;0.30;93.40
33574;DHT22;20085;50.832;4.392;2022-12-18T06:30:31;0.40;93.50
33574;DHT22;20085;50.832;4.392;2022-12-18T06:33:13;0.40;93.40
33574;DHT22;20085;50.832;4.392;2022-12-18T06:38:39;0.50;93.20
33574;DHT22;20085;50.832;4.392;2022-12-18T06:41:25;0.40;93.10
33574;DHT22;20085;50.832;4.392;2022-12-18T06:44:10;0.40;93.20
33574;DHT22;20085;50.832;4.392;2022-12-18T06:46:36;0.30;93.10
33574;DHT22;20085;50.832;4.392;2022-12-18T06:49:32;0.30;93.10
33574;DHT22;20085;50.832;4.392;2022-12-18T06:54:43;0.30;93.10
33574;DHT22;20085;50.832;4.392;2022-12-18T06:57:26;0.40;92.90
33574;DHT22;20085;50.832;4.392;2022-12-18T06:59:54;0.50;92.90
33574;DHT22;20085;50.832;4.392;2022-12-18T07:02:28;0.50;92.80
33574;DHT22;20085;50.832;4.392;2022-12-18T07:04:59;0.50;92.80
33574;DHT22;20085;50.832;4.392;2022-12-18T07:07:29;0.40;92.70
33574;DHT22;20085;50.832;4.392;2022-12-18T07:09:56;0.30;92.80
33574;DHT22;20085;50.832;4.392;2022-12-18T07:12:32;0.30;92.90
33574;DHT22;20085;50.832;4.392;2022-12-18T07:18:32;0.50;92.80
33574;DHT22;20085;50.832;4.392;2022-12-18T07:21:19;0.50;92.70
33574;DHT22;20085;50.832;4.392;2022-12-18T07:23:55;0.40;92.70
33574;DHT22;20085;50.832;4.392;2022-12-18T07:26:25;0.30;92.70
33574;DHT22;20085;50.832;4.392;2022-12-18T07:28:56;0.20;92.70
33574;DHT22;20085;50.832;4.392;2022-12-18T07:31:33;0.20;92.90
33574;DHT22;20085;50.832;4.392;2022-12-18T07:39:36;0.20;93.10
33574;DHT22;20085;50.832;4.392;2022-12-18T07:42:41;0.30;93.00
33574;DHT22;20085;50.832;4.392;2022-12-18T07:45:13;0.40;92.90
33574;DHT22;20085;50.832;4.392;2022-12-18T07:47:43;0.30;92.80
33574;DHT22;20085;50.832;4.392;2022-12-18T07:50:09;0.30;92.90
33574;DHT22;20085;50.832;4.392;2022-12-18T07:52:38;0.30;92.90
33574;DHT22;20085;50.832;4.392;2022-12-18T07:55:07;0.30;92.90
33574;DHT22;20085;50.832;4.392;2022-12-18T07:57:38;0.30;93.00
33574;DHT22;20085;50.832;4.392;2022-12-18T08:00:16;0.40;92.90
33574;DHT22;20085;50.832;4.392;2022-12-18T08:02:46;0.40;92.80
33574;DHT22;20085;50.832;4.392;2022-12-18T08:05:27;0.40;92.80
33574;DHT22;20085;50.832;4.392;2022-12-18T08:08:06;0.40;92.80
33574;DHT22;20085;50.832;4.392;2022-12-18T08:13:44;0.40;93.00
33574;DHT22;20085;50.832;4.392;2022-12-18T08:16:50;0.50;92.90
33574;DHT22;20085;50.832;4.392;2022-12-18T08:19:17;0.40;93.00
33574;DHT22;20085;50.832;4.392;2022-12-18T08:21:42;0.40;93.10
33574;DHT22;20085;50.832;4.392;2022-12-18T08:24:33;0.40;93.10
33574;DHT22;20085;50.832;4.392;2022-12-18T08:27:02;0.40;93.10
33574;DHT22;20085;50.832;4.392;2022-12-18T08:29:28;0.50;93.20
33574;DHT22;20085;50.832;4.392;2022-12-18T08:31:53;0.50;93.10
33574;DHT22;20085;50.832;4.392;2022-12-18T08:34:18;0.60;93.10
33574;DHT22;20085;50.832;4.392;2022-12-18T08:36:44;0.70;93.00
33574;DHT22;20085;50.832;4.392;2022-12-18T08:39:10;0.70;92.90
33574;DHT22;20085;50.832;4.392;2022-12-18T08:41:36;0.80;92.90
33574;DHT22;20085;50.832;4.392;2022-12-18T08:44:10;0.80;92.80
33574;DHT22;20085;50.832;4.392;2022-12-18T08:46:58;0.70;93.00
33574;DHT22;20085;50.832;4.392;2022-12-18T08:49:24;0.60;93.20
33574;DHT22;20085;50.832;4.392;2022-12-18T08:51:54;0.70;93.20
33574;DHT22;20085;50.832;4.392;2022-12-18T08:54:24;0.70;93.10
33574;DHT22;20085;50.832;4.392;2022-12-18T08:56:55;0.70;93.10
33574;DHT22;20085;50.832;4.392;2022-12-18T08:59:22;0.60;93.10
33574;DHT22;20085;50.832;4.392;2022-12-18T09:01:59;0.60;93.30
33574;DHT22;20085;50.832;4.392;2022-12-18T09:04:28;0.70;93.30
33574;DHT22;20085;50.832;4.392;2022-12-18T09:07:04;0.80;93.20
33574;DHT22;20085;50.832;4.392;2022-12-18T09:09:37;0.90;93.00
33574;DHT22;20085;50.832;4.392;2022-12-18T09:15:29;1.10;92.90
33574;DHT22;20085;50.832;4.392;2022-12-18T09:17:54;1.10;92.80
33574;DHT22;20085;50.832;4.392;2022-12-18T09:20:21;1.10;92.90
33574;DHT22;20085;50.832;4.392;2022-12-18T09:22:47;1.10;92.90
33574;DHT22;20085;50.832;4.392;2022-12-18T09:25:12;1.20;92.80
33574;DHT22;20085;50.832;4.392;2022-12-18T09:27:41;1.20;92.70
33574;DHT22;20085;50.832;4.392;2022-12-18T09:30:06;1.20;92.70
33574;DHT22;20085;50.832;4.392;2022-12-18T09:32:34;1.20;92.70
33574;DHT22;20085;50.832;4.392;2022-12-18T09:34:59;1.30;92.70
33574;DHT22;20085;50.832;4.392;2022-12-18T09:37:28;1.40;92.50
33574;DHT22;20085;50.832;4.392;2022-12-18T09:40:16;1.50;92.40
33574;DHT22;20085;50.832;4.392;2022-12-18T09:42:45;1.60;92.30
33574;DHT22;20085;50.832;4.392;2022-12-18T09:45:22;1.60;92.20
33574;DHT22;20085;50.832;4.392;2022-12-18T09:51:23;1.70;92.00
33574;DHT22;20085;50.832;4.392;2022-12-18T09:54:01;1.70;92.00
33574;DHT22;20085;50.832;4.392;2022-12-18T09:56:35;1.70;92.10
33574;DHT22;20085;50.832;4.392;2022-12-18T09:59:05;1.80;92.00
33574;DHT22;20085;50.832;4.392;2022-12-18T10:01:40;1.70;92.20
33574;DHT22;20085;50.832;4.392;2022-12-18T10:04:32;1.70;92.30
33574;DHT22;20085;50.832;4.392;2022-12-18T10:07:26;1.70;92.30
33574;DHT22;20085;50.832;4.392;2022-12-18T10:10:00;1.80;92.30
33574;DHT22;20085;50.832;4.392;2022-12-18T10:12:43;1.90;92.20
33574;DHT22;20085;50.832;4.392;2022-12-18T10:18:03;1.80;92.30
33574;DHT22;20085;50.832;4.392;2022-12-18T10:20:45;1.90;92.40
33574;DHT22;20085;50.832;4.392;2022-12-18T10:28:10;2.00;92.10
33574;DHT22;20085;50.832;4.392;2022-12-18T10:30:49;2.00;92.20
33574;DHT22;20085;50.832;4.392;2022-12-18T10:33:19;2.00;92.10
33574;DHT22;20085;50.832;4.392;2022-12-18T10:35:50;2.10;92.00
33574;DHT22;20085;50.832;4.392;2022-12-18T10:40:55;2.20;92.10
33574;DHT22;20085;50.832;4.392;2022-12-18T10:43:30;2.20;92.00
33574;DHT22;20085;50.832;4.392;2022-12-18T10:46:17;2.20;92.10
33574;DHT22;20085;50.832;4.392;2022-12-18T10:51:38;2.30;92.10
33574;DHT22;20085;50.832;4.392;2022-12-18T10:54:22;2.30;92.10
33574;DHT22;20085;50.832;4.392;2022-12-18T10:57:20;2.30;92.20
33574;DHT22;20085;50.832;4.392;2022-12-18T10:59:59;2.40;92.10
33574;DHT22;20085;50.832;4.392;2022-12-18T11:02:58;2.40;92.20
33574;DHT22;20085;50.832;4.392;2022-12-18T11:07:54;2.50;92.00
33574;DHT22;20085;50.832;4.392;2022-12-18T11:10:46;2.50;92.00
33574;DHT22;20085;50.832;4.392;2022-12-18T11:13:22;2.50;92.00
33574;DHT22;20085;50.832;4.392;2022-12-18T11:15:48;2.50;92.00
33574;DHT22;20085;50.832;4.392;2022-12-18T11:18:19;2.40;92.20
33574;DHT22;20085;50.832;4.392;2022-12-18T11:21:11;2.50;92.20
33574;DHT22;20085;50.832;4.392;2022-12-18T11:24:00;2.60;92.20
33574;DHT22;20085;50.832;4.392;2022-12-18T11:26:37;2.60;92.10
33574;DHT22;20085;50.832;4.392;2022-12-18T11:29:38;2.70;92.10
33574;DHT22;20085;50.832;4.392;2022-12-18T11:35:12;2.70;91.90
33574;DHT22;20085;50.832;4.392;2022-12-18T11:37:54;2.80;92.00
33574;DHT22;20085;50.832;4.392;2022-12-18T11:40:48;2.70;91.90
33574;DHT22;20085;50.832;4.392;2022-12-18T11:49:12;2.80;91.70
33574;DHT22;20085;50.832;4.392;2022-12-18T11:54:34;2.90;91.40
33574;DHT22;20085;50.832;4.392;2022-12-18T12:00:15;3.00;91.20
33574;DHT22;20085;50.832;4.392;2022-12-18T12:18:02;3.20;91.10
33574;DHT22;20085;50.832;4.392;2022-12-18T12:21:10;3.20;91.10
33574;DHT22;20085;50.832;4.392;2022-12-18T12:26:39;3.20;91.20
33574;DHT22;20085;50.832;4.392;2022-12-18T12:29:39;3.20;91.20
33574;DHT22;20085;50.832;4.392;2022-12-18T12:32:30;3.30;91.20
33574;DHT22;20085;50.832;4.392;2022-12-18T12:35:29;3.30;91.10
33574;DHT22;20085;50.832;4.392;2022-12-18T12:38:35;3.40;91.10
33574;DHT22;20085;50.832;4.392;2022-12-18T12:41:21;3.40;91.00
33574;DHT22;20085;50.832;4.392;2022-12-18T12:44:35;3.40;90.90
33574;DHT22;20085;50.832;4.392;2022-12-18T12:50:18;3.40;91.10
33574;DHT22;20085;50.832;4.392;2022-12-18T12:53:20;3.50;90.90
33574;DHT22;20085;50.832;4.392;2022-12-18T12:55:49;3.50;90.90
33574;DHT22;20085;50.832;4.392;2022-12-18T13:04:08;3.40;91.10
33574;DHT22;20085;50.832;4.392;2022-12-18T13:06:53;3.40;91.20
33574;DHT22;20085;50.832;4.392;2022-12-18T13:16:06;3.50;91.20
33574;DHT22;20085;50.832;4.392;2022-12-18T13:18:55;3.60;91.30
33574;DHT22;20085;50.832;4.392;2022-12-18T13:24:51;3.60;91.20
33574;DHT22;20085;50.832;4.392;2022-12-18T13:38:37;3.60;91.20
33574;DHT22;20085;50.832;4.392;2022-12-18T13:41:46;3.60;91.20
33574;DHT22;20085;50.832;4.392;2022-12-18T13:44:32;3.60;91.10
33574;DHT22;20085;50.832;4.392;2022-12-18T13:47:07;3.50;91.10
33574;DHT22;20085;50.832;4.392;2022-12-18T13:49:54;3.60;91.20
33574;DHT22;20085;50.832;4.392;2022-12-18T13:52:40;3.60;91.30
33574;DHT22;20085;50.832;4.392;2022-12-18T13:55:23;3.60;91.20
33574;DHT22;20085;50.832;4.392;2022-12-18T13:58:11;3.60;91.20
33574;DHT22;20085;50.832;4.392;2022-12-18T14:01:04;3.60;91.20
33574;DHT22;20085;50.832;4.392;2022-12-18T14:07:22;3.40;91.30
33574;DHT22;20085;50.832;4.392;2022-12-18T14:10:11;3.50;91.50
33574;DHT22;20085;50.832;4.392;2022-12-18T14:12:56;3.50;91.50
33574;DHT22;20085;50.832;4.392;2022-12-18T14:18:29;3.50;91.70
33574;DHT22;20085;50.832;4.392;2022-12-18T14:21:15;3.50;91.70
33574;DHT22;20085;50.832;4.392;2022-12-18T14:29:51;3.50;91.80
33574;DHT22;20085;50.832;4.392;2022-12-18T14:32:38;3.50;91.80
33574;DHT22;20085;50.832;4.392;2022-12-18T14:35:27;3.50;91.80
33574;DHT22;20085;50.832;4.392;2022-12-18T14:38:08;3.50;91.60
33574;DHT22;20085;50.832;4.392;2022-12-18T14:40:36;3.50;91.60
33574;DHT22;20085;50.832;4.392;2022-12-18T14:43:13;3.60;91.50
33574;DHT22;20085;50.832;4.392;2022-12-18T14:45:59;3.60;91.50
33574;DHT22;20085;50.832;4.392;2022-12-18T14:49:05;3.60;91.50
33574;DHT22;20085;50.832;4.392;2022-12-18T14:52:03;3.60;91.60
33574;DHT22;20085;50.832;4.392;2022-12-18T14:55:13;3.50;91.50
33574;DHT22;20085;50.832;4.392;2022-12-18T14:57:55;3.50;91.60
33574;DHT22;20085;50.832;4.392;2022-12-18T15:00:28;3.60;91.50
33574;DHT22;20085;50.832;4.392;2022-12-18T15:02:58;3.70;91.40
33574;DHT22;20085;50.832;4.392;2022-12-18T15:05:27;3.70;91.30
33574;DHT22;20085;50.832;4.392;2022-12-18T15:08:29;3.60;91.30
33574;DHT22;20085;50.832;4.392;2022-12-18T15:13:53;3.50;91.40
33574;DHT22;20085;50.832;4.392;2022-12-18T15:16:41;3.50;91.40
33574;DHT22;20085;50.832;4.392;2022-12-18T15:22:43;3.60;91.50
33574;DHT22;20085;50.832;4.392;2022-12-18T15:25:35;3.50;91.50
33574;DHT22;20085;50.832;4.392;2022-12-18T15:31:29;3.50;91.50
33574;DHT22;20085;50.832;4.392;2022-12-18T15:34:12;3.50;91.40
33574;DHT22;20085;50.832;4.392;2022-12-18T15:37:03;3.50;91.30
33574;DHT22;20085;50.832;4.392;2022-12-18T15:39:55;3.50;91.30
33574;DHT22;20085;50.832;4.392;2022-12-18T15:42:42;3.50;91.40
33574;DHT22;20085;50.832;4.392;2022-12-18T15:45:46;3.50;91.50
33574;DHT22;20085;50.832;4.392;2022-12-18T15:48:42;3.60;91.50
33574;DHT22;20085;50.832;4.392;2022-12-18T15:51:32;3.60;91.50
33574;DHT22;20085;50.832;4.392;2022-12-18T15:54:22;3.60;91.30
33574;DHT22;20085;50.832;4.392;2022-12-18T15:59:47;3.60;91.20
33574;DHT22;20085;50.832;4.392;2022-12-18T16:02:17;3.60;91.10
33574;DHT22;20085;50.832;4.392;2022-12-18T16:08:19;3.60;91.00
33574;DHT22;20085;50.832;4.392;2022-12-18T16:10:48;3.60;91.00
33574;DHT22;20085;50.832;4.392;2022-12-18T16:13:21;3.60;91.00
33574;DHT22;20085;50.832;4.392;2022-12-18T16:16:07;3.60;91.00
33574;DHT22;20085;50.832;4.392;2022-12-18T16:18:35;3.60;91.00
33574;DHT22;20085;50.832;4.392;2022-12-18T16:21:24;3.50;90.90
33574;DHT22;20085;50.832;4.392;2022-12-18T16:23:52;3.60;90.90
33574;DHT22;20085;50.832;4.392;2022-12-18T16:26:36;3.60;90.80
33574;DHT22;20085;50.832;4.392;2022-12-18T16:29:28;3.60;90.70
33574;DHT22;20085;50.832;4.392;2022-12-18T16:32:05;3.60;91.00
33574;DHT22;20085;50.832;4.392;2022-12-18T16:37:06;3.60;90.50
33574;DHT22;20085;50.832;4.392;2022-12-18T16:39:34;3.70;90.50
33574;DHT22;20085;50.832;4.392;2022-12-18T16:42:01;3.70;90.50
33574;DHT22;20085;50.832;4.392;2022-12-18T16:44:31;3.70;90.50
33574;DHT22;20085;50.832;4.392;2022-12-18T16:47:06;3.70;90.40
33574;DHT22;20085;50.832;4.392;2022-12-18T16:49:32;3.70;90.20
33574;DHT22;20085;50.832;4.392;2022-12-18T16:52:00;3.80;90.10
33574;DHT22;20085;50.832;4.392;2022-12-18T16:54:49;3.80;90.00
33574;DHT22;20085;50.832;4.392;2022-12-18T16:57:39;3.80;90.00
33574;DHT22;20085;50.832;4.392;2022-12-18T17:00:07;3.80;90.00
33574;DHT22;20085;50.832;4.392;2022-12-18T17:02:34;3.80;90.00
33574;DHT22;20085;50.832;4.392;2022-12-18T17:05:00;3.80;90.10
33574;DHT22;20085;50.832;4.392;2022-12-18T17:07:28;3.80;90.20
33574;DHT22;20085;50.832;4.392;2022-12-18T17:09:54;3.80;90.20
33574;DHT22;20085;50.832;4.392;2022-12-18T17:12:20;3.80;90.30
33574;DHT22;20085;50.832;4.392;2022-12-18T17:14:52;3.80;90.40
33574;DHT22;20085;50.832;4.392;2022-12-18T17:17:38;3.80;90.50
33574;DHT22;20085;50.832;4.392;2022-12-18T17:20:06;3.90;90.40
33574;DHT22;20085;50.832;4.392;2022-12-18T17:22:32;3.90;90.50
33574;DHT22;20085;50.832;4.392;2022-12-18T17:24:58;3.90;90.70
33574;DHT22;20085;50.832;4.392;2022-12-18T17:27:23;3.90;90.90
33574;DHT22;20085;50.832;4.392;2022-12-18T17:29:56;4.00;91.00
33574;DHT22;20085;50.832;4.392;2022-12-18T17:32:25;4.00;91.10
33574;DHT22;20085;50.832;4.392;2022-12-18T17:34:50;4.00;91.20
33574;DHT22;20085;50.832;4.392;2022-12-18T17:37:19;4.00;91.40
33574;DHT22;20085;50.832;4.392;2022-12-18T17:39:44;4.00;91.60
33574;DHT22;20085;50.832;4.392;2022-12-18T17:42:10;3.90;91.70
33574;DHT22;20085;50.832;4.392;2022-12-18T17:44:38;4.00;91.90
33574;DHT22;20085;50.832;4.392;2022-12-18T17:47:04;4.00;92.40
33574;DHT22;20085;50.832;4.392;2022-12-18T17:49:30;4.00;92.30
33574;DHT22;20085;50.832;4.392;2022-12-18T17:51:55;4.00;92.40
33574;DHT22;20085;50.832;4.392;2022-12-18T17:54:23;4.00;92.60
33574;DHT22;20085;50.832;4.392;2022-12-18T17:56:49;4.00;92.80
33574;DHT22;20085;50.832;4.392;2022-12-18T17:59:16;4.00;93.10
33574;DHT22;20085;50.832;4.392;2022-12-18T18:01:42;4.00;93.40
33574;DHT22;20085;50.832;4.392;2022-12-18T18:04:08;4.00;93.50
33574;DHT22;20085;50.832;4.392;2022-12-18T18:06:36;4.00;93.80
33574;DHT22;20085;50.832;4.392;2022-12-18T18:09:02;4.00;93.90
33574;DHT22;20085;50.832;4.392;2022-12-18T18:11:29;4.00;94.20
33574;DHT22;20085;50.832;4.392;2022-12-18T18:14:14;4.10;94.50
33574;DHT22;20085;50.832;4.392;2022-12-18T18:16:47;4.00;94.80
33574;DHT22;20085;50.832;4.392;2022-12-18T18:19:17;4.10;95.00
33574;DHT22;20085;50.832;4.392;2022-12-18T18:21:45;4.00;95.20
33574;DHT22;20085;50.832;4.392;2022-12-18T18:24:16;4.00;95.40
33574;DHT22;20085;50.832;4.392;2022-12-18T18:27:05;4.10;95.70
33574;DHT22;20085;50.832;4.392;2022-12-18T18:29:33;4.00;95.70
33574;DHT22;20085;50.832;4.392;2022-12-18T18:31:59;4.00;96.00
33574;DHT22;20085;50.832;4.392;2022-12-18T18:34:27;4.00;96.10
33574;DHT22;20085;50.832;4.392;2022-12-18T18:36:57;4.00;96.40
33574;DHT22;20085;50.832;4.392;2022-12-18T18:39:23;4.00;96.60
33574;DHT22;20085;50.832;4.392;2022-12-18T18:41:52;4.00;96.80
33574;DHT22;20085;50.832;4.392;2022-12-18T18:44:26;4.00;97.00
33574;DHT22;20085;50.832;4.392;2022-12-18T18:47:16;4.00;97.30
33574;DHT22;20085;50.832;4.392;2022-12-18T18:50:09;4.00;97.30
33574;DHT22;20085;50.832;4.392;2022-12-18T18:52:38;4.00;97.50
33574;DHT22;20085;50.832;4.392;2022-12-18T18:55:06;4.00;97.70
33574;DHT22;20085;50.832;4.392;2022-12-18T18:57:48;4.00;97.90
33574;DHT22;20085;50.832;4.392;2022-12-18T19:00:21;4.00;98.10
33574;DHT22;20085;50.832;4.392;2022-12-18T19:02:52;4.10;98.30
33574;DHT22;20085;50.832;4.392;2022-12-18T19:05:30;4.10;98.40
33574;DHT22;20085;50.832;4.392;2022-12-18T19:08:24;4.10;98.50
33574;DHT22;20085;50.832;4.392;2022-12-18T19:10:55;4.00;98.70
33574;DHT22;20085;50.832;4.392;2022-12-18T19:13:27;4.00;99.00
33574;DHT22;20085;50.832;4.392;2022-12-18T19:16:11;4.00;99.10
33574;DHT22;20085;50.832;4.392;2022-12-18T19:18:57;4.10;99.20
33574;DHT22;20085;50.832;4.392;2022-12-18T19:21:32;4.00;99.40
33574;DHT22;20085;50.832;4.392;2022-12-18T19:24:02;4.10;99.50
33574;DHT22;20085;50.832;4.392;2022-12-18T19:26:51;4.10;99.60
33574;DHT22;20085;50.832;4.392;2022-12-18T19:29:35;4.10;99.70
33574;DHT22;20085;50.832;4.392;2022-12-18T19:32:19;4.10;99.70
33574;DHT22;20085;50.832;4.392;2022-12-18T19:34:49;4.20;99.80
33574;DHT22;20085;50.832;4.392;2022-12-18T19:37:21;4.10;99.90
33574;DHT22;20085;50.832;4.392;2022-12-18T19:40:05;4.10;99.90
33574;DHT22;20085;50.832;4.392;2022-12-18T19:42:54;4.20;99.90